sensor_id;sensor_type;location;lat;lon;timestamp;P1;durP1;ratioP1;P2;durP2;ratioP2
29092;SDS011;16167;48.768;14.984;2022-09-12T00:00:02;7.40;;;6.50;;
29092;SDS011;16167;48.768;14.984;2022-09-12T00:02:32;7.47;;;6.35;;
29092;SDS011;16167;48.768;14.984;2022-09-12T00:05:01;7.88;;;6.30;;
29092;SDS011;16167;48.768;14.984;2022-09-12T00:07:32;7.78;;;6.72;;
29092;SDS011;16167;48.768;14.984;2022-09-12T00:10:00;7.05;;;6.35;;
29092;SDS011;16167;48.768;14.984;2022-09-12T00:12:28;8.20;;;6.63;;
29092;SDS011;16167;48.768;14.984;2022-09-12T00:14:56;8.15;;;6.60;;
29092;SDS011;16167;48.768;14.984;2022-09-12T00:17:25;10.63;;;7.30;;
29092;SDS011;16167;48.768;14.984;2022-09-12T00:19:53;10.82;;;7.53;;
29092;SDS011;16167;48.768;14.984;2022-09-12T00:22:23;8.85;;;6.75;;
29092;SDS011;16167;48.768;14.984;2022-09-12T00:24:51;8.15;;;7.00;;
29092;SDS011;16167;48.768;14.984;2022-09-12T00:27:19;10.45;;;6.80;;
29092;SDS011;16167;48.768;14.984;2022-09-12T00:29:47;8.50;;;6.50;;
29092;SDS011;16167;48.768;14.984;2022-09-12T00:32:15;9.15;;;6.95;;
29092;SDS011;16167;48.768;14.984;2022-09-12T00:34:43;8.27;;;6.63;;
29092;SDS011;16167;48.768;14.984;2022-09-12T00:37:11;8.98;;;7.80;;
29092;SDS011;16167;48.768;14.984;2022-09-12T00:39:41;10.13;;;7.00;;
29092;SDS011;16167;48.768;14.984;2022-09-12T00:42:09;7.00;;;6.25;;
29092;SDS011;16167;48.768;14.984;2022-09-12T00:44:41;8.55;;;7.25;;
29092;SDS011;16167;48.768;14.984;2022-09-12T00:47:18;8.35;;;6.68;;
29092;SDS011;16167;48.768;14.984;2022-09-12T00:49:50;8.13;;;7.07;;
29092;SDS011;16167;48.768;14.984;2022-09-12T00:52:23;10.13;;;7.45;;
29092;SDS011;16167;48.768;14.984;2022-09-12T00:54:58;13.48;;;8.25;;
29092;SDS011;16167;48.768;14.984;2022-09-12T00:57:31;11.40;;;7.68;;
29092;SDS011;16167;48.768;14.984;2022-09-12T01:00:05;11.07;;;7.15;;
29092;SDS011;16167;48.768;14.984;2022-09-12T01:02:38;10.63;;;7.97;;
29092;SDS011;16167;48.768;14.984;2022-09-12T01:05:07;10.73;;;7.85;;
29092;SDS011;16167;48.768;14.984;2022-09-12T01:07:36;8.38;;;7.18;;
29092;SDS011;16167;48.768;14.984;2022-09-12T01:10:07;10.77;;;8.23;;
29092;SDS011;16167;48.768;14.984;2022-09-12T01:12:36;11.73;;;8.27;;
29092;SDS011;16167;48.768;14.984;2022-09-12T01:15:07;9.85;;;7.65;;
29092;SDS011;16167;48.768;14.984;2022-09-12T01:17:37;17.10;;;8.65;;
29092;SDS011;16167;48.768;14.984;2022-09-12T01:23:19;8.00;;;7.20;;
29092;SDS011;16167;48.768;14.984;2022-09-12T01:26:30;11.45;;;7.63;;
29092;SDS011;16167;48.768;14.984;2022-09-12T01:29:34;11.23;;;7.07;;
29092;SDS011;16167;48.768;14.984;2022-09-12T01:32:19;8.93;;;7.30;;
29092;SDS011;16167;48.768;14.984;2022-09-12T01:34:52;11.52;;;7.68;;
29092;SDS011;16167;48.768;14.984;2022-09-12T01:37:28;9.88;;;8.07;;
29092;SDS011;16167;48.768;14.984;2022-09-12T01:40:06;7.90;;;6.45;;
29092;SDS011;16167;48.768;14.984;2022-09-12T01:42:42;9.45;;;6.78;;
29092;SDS011;16167;48.768;14.984;2022-09-12T01:45:15;10.30;;;7.30;;
29092;SDS011;16167;48.768;14.984;2022-09-12T01:47:52;11.52;;;7.22;;
29092;SDS011;16167;48.768;14.984;2022-09-12T01:50:26;9.60;;;7.00;;
29092;SDS011;16167;48.768;14.984;2022-09-12T01:52:58;10.77;;;6.78;;
29092;SDS011;16167;48.768;14.984;2022-09-12T01:55:30;7.70;;;6.80;;
29092;SDS011;16167;48.768;14.984;2022-09-12T01:58:02;9.48;;;7.80;;
29092;SDS011;16167;48.768;14.984;2022-09-12T02:00:33;9.80;;;7.85;;
29092;SDS011;16167;48.768;14.984;2022-09-12T02:03:10;8.00;;;6.78;;
29092;SDS011;16167;48.768;14.984;2022-09-12T02:05:42;7.43;;;6.50;;
29092;SDS011;16167;48.768;14.984;2022-09-12T02:08:14;8.70;;;6.72;;
29092;SDS011;16167;48.768;14.984;2022-09-12T02:10:46;9.13;;;6.95;;
29092;SDS011;16167;48.768;14.984;2022-09-12T02:13:20;7.97;;;7.18;;
29092;SDS011;16167;48.768;14.984;2022-09-12T02:15:54;9.20;;;7.60;;
29092;SDS011;16167;48.768;14.984;2022-09-12T02:18:27;8.70;;;7.20;;
29092;SDS011;16167;48.768;14.984;2022-09-12T02:20:58;12.57;;;7.53;;
29092;SDS011;16167;48.768;14.984;2022-09-12T02:23:28;10.43;;;7.30;;
29092;SDS011;16167;48.768;14.984;2022-09-12T02:25:59;9.18;;;7.32;;
29092;SDS011;16167;48.768;14.984;2022-09-12T02:28:31;8.40;;;7.18;;
29092;SDS011;16167;48.768;14.984;2022-09-12T02:31:04;8.43;;;6.68;;
29092;SDS011;16167;48.768;14.984;2022-09-12T02:33:42;10.07;;;7.32;;
29092;SDS011;16167;48.768;14.984;2022-09-12T02:36:16;8.48;;;6.47;;
29092;SDS011;16167;48.768;14.984;2022-09-12T02:38:56;9.13;;;7.22;;
29092;SDS011;16167;48.768;14.984;2022-09-12T02:41:24;8.63;;;7.45;;
29092;SDS011;16167;48.768;14.984;2022-09-12T02:43:52;9.27;;;6.90;;
29092;SDS011;16167;48.768;14.984;2022-09-12T02:46:21;9.55;;;6.88;;
29092;SDS011;16167;48.768;14.984;2022-09-12T02:48:53;10.40;;;6.65;;
29092;SDS011;16167;48.768;14.984;2022-09-12T02:51:23;10.57;;;6.65;;
29092;SDS011;16167;48.768;14.984;2022-09-12T02:53:52;7.93;;;6.75;;
29092;SDS011;16167;48.768;14.984;2022-09-12T02:56:21;8.93;;;7.18;;
29092;SDS011;16167;48.768;14.984;2022-09-12T02:58:53;7.60;;;6.82;;
29092;SDS011;16167;48.768;14.984;2022-09-12T03:01:28;10.23;;;7.22;;
29092;SDS011;16167;48.768;14.984;2022-09-12T03:04:26;18.45;;;8.15;;
29092;SDS011;16167;48.768;14.984;2022-09-12T03:07:13;41.28;;;8.85;;
29092;SDS011;16167;48.768;14.984;2022-09-12T03:09:51;11.73;;;6.88;;
29092;SDS011;16167;48.768;14.984;2022-09-12T03:12:32;14.73;;;7.03;;
29092;SDS011;16167;48.768;14.984;2022-09-12T03:15:11;8.38;;;6.43;;
29092;SDS011;16167;48.768;14.984;2022-09-12T03:17:53;8.25;;;6.25;;
29092;SDS011;16167;48.768;14.984;2022-09-12T03:20:35;6.07;;;5.47;;
29092;SDS011;16167;48.768;14.984;2022-09-12T03:23:11;7.93;;;5.72;;
29092;SDS011;16167;48.768;14.984;2022-09-12T03:25:48;9.93;;;7.57;;
29092;SDS011;16167;48.768;14.984;2022-09-12T03:28:22;7.85;;;6.53;;
29092;SDS011;16167;48.768;14.984;2022-09-12T03:30:50;6.18;;;5.57;;
29092;SDS011;16167;48.768;14.984;2022-09-12T03:33:21;8.80;;;6.80;;
29092;SDS011;16167;48.768;14.984;2022-09-12T03:35:52;8.48;;;7.13;;
29092;SDS011;16167;48.768;14.984;2022-09-12T03:38:21;7.90;;;7.10;;
29092;SDS011;16167;48.768;14.984;2022-09-12T03:40:49;7.22;;;6.53;;
29092;SDS011;16167;48.768;14.984;2022-09-12T03:43:20;8.15;;;7.20;;
29092;SDS011;16167;48.768;14.984;2022-09-12T03:45:48;10.63;;;7.90;;
29092;SDS011;16167;48.768;14.984;2022-09-12T03:48:18;8.23;;;7.38;;
29092;SDS011;16167;48.768;14.984;2022-09-12T03:50:46;9.85;;;6.88;;
29092;SDS011;16167;48.768;14.984;2022-09-12T03:53:15;8.30;;;7.40;;
29092;SDS011;16167;48.768;14.984;2022-09-12T03:55:43;8.55;;;7.47;;
29092;SDS011;16167;48.768;14.984;2022-09-12T03:58:11;11.20;;;7.60;;
29092;SDS011;16167;48.768;14.984;2022-09-12T04:00:39;9.23;;;7.68;;
29092;SDS011;16167;48.768;14.984;2022-09-12T04:03:08;8.57;;;7.28;;
29092;SDS011;16167;48.768;14.984;2022-09-12T04:05:36;11.43;;;7.05;;
29092;SDS011;16167;48.768;14.984;2022-09-12T04:08:04;9.45;;;7.15;;
29092;SDS011;16167;48.768;14.984;2022-09-12T04:10:33;9.50;;;6.70;;
29092;SDS011;16167;48.768;14.984;2022-09-12T04:13:01;8.45;;;7.35;;
29092;SDS011;16167;48.768;14.984;2022-09-12T04:15:29;7.43;;;6.22;;
29092;SDS011;16167;48.768;14.984;2022-09-12T04:17:57;10.40;;;6.85;;
29092;SDS011;16167;48.768;14.984;2022-09-12T04:20:30;8.30;;;6.35;;
29092;SDS011;16167;48.768;14.984;2022-09-12T04:22:59;8.20;;;6.57;;
29092;SDS011;16167;48.768;14.984;2022-09-12T04:25:26;9.65;;;6.32;;
29092;SDS011;16167;48.768;14.984;2022-09-12T04:27:57;8.65;;;7.20;;
29092;SDS011;16167;48.768;14.984;2022-09-12T04:30:25;12.02;;;8.60;;
29092;SDS011;16167;48.768;14.984;2022-09-12T04:32:54;11.10;;;7.30;;
29092;SDS011;16167;48.768;14.984;2022-09-12T04:35:22;10.07;;;7.15;;
29092;SDS011;16167;48.768;14.984;2022-09-12T04:37:49;9.00;;;7.38;;
29092;SDS011;16167;48.768;14.984;2022-09-12T04:40:17;7.72;;;6.90;;
29092;SDS011;16167;48.768;14.984;2022-09-12T04:42:46;10.80;;;7.40;;
29092;SDS011;16167;48.768;14.984;2022-09-12T04:45:15;12.63;;;7.68;;
29092;SDS011;16167;48.768;14.984;2022-09-12T04:47:43;12.38;;;8.35;;
29092;SDS011;16167;48.768;14.984;2022-09-12T04:50:11;12.35;;;8.02;;
29092;SDS011;16167;48.768;14.984;2022-09-12T04:52:40;11.23;;;8.20;;
29092;SDS011;16167;48.768;14.984;2022-09-12T04:55:08;10.40;;;7.70;;
29092;SDS011;16167;48.768;14.984;2022-09-12T04:57:36;12.40;;;8.02;;
29092;SDS011;16167;48.768;14.984;2022-09-12T05:00:05;11.13;;;8.10;;
29092;SDS011;16167;48.768;14.984;2022-09-12T05:02:35;12.23;;;8.07;;
29092;SDS011;16167;48.768;14.984;2022-09-12T05:05:04;17.50;;;8.70;;
29092;SDS011;16167;48.768;14.984;2022-09-12T05:07:33;10.95;;;7.93;;
29092;SDS011;16167;48.768;14.984;2022-09-12T05:10:02;10.68;;;8.05;;
29092;SDS011;16167;48.768;14.984;2022-09-12T05:12:30;12.80;;;8.40;;
29092;SDS011;16167;48.768;14.984;2022-09-12T05:14:59;9.93;;;8.18;;
29092;SDS011;16167;48.768;14.984;2022-09-12T05:17:27;12.18;;;8.13;;
29092;SDS011;16167;48.768;14.984;2022-09-12T05:19:57;10.43;;;7.77;;
29092;SDS011;16167;48.768;14.984;2022-09-12T05:22:26;7.53;;;6.72;;
29092;SDS011;16167;48.768;14.984;2022-09-12T05:24:54;8.93;;;7.13;;
29092;SDS011;16167;48.768;14.984;2022-09-12T05:27:21;8.77;;;6.95;;
29092;SDS011;16167;48.768;14.984;2022-09-12T05:29:50;16.83;;;8.10;;
29092;SDS011;16167;48.768;14.984;2022-09-12T05:32:17;9.88;;;7.13;;
29092;SDS011;16167;48.768;14.984;2022-09-12T05:34:45;9.23;;;7.28;;
29092;SDS011;16167;48.768;14.984;2022-09-12T05:37:15;8.43;;;7.20;;
29092;SDS011;16167;48.768;14.984;2022-09-12T05:39:43;7.40;;;6.50;;
29092;SDS011;16167;48.768;14.984;2022-09-12T05:42:11;9.82;;;7.50;;
29092;SDS011;16167;48.768;14.984;2022-09-12T05:44:40;8.45;;;6.68;;
29092;SDS011;16167;48.768;14.984;2022-09-12T05:47:10;8.93;;;6.63;;
29092;SDS011;16167;48.768;14.984;2022-09-12T05:49:38;10.40;;;6.85;;
29092;SDS011;16167;48.768;14.984;2022-09-12T05:52:06;8.90;;;7.93;;
29092;SDS011;16167;48.768;14.984;2022-09-12T05:54:35;10.98;;;7.55;;
29092;SDS011;16167;48.768;14.984;2022-09-12T05:57:03;9.57;;;8.38;;
29092;SDS011;16167;48.768;14.984;2022-09-12T05:59:32;12.68;;;8.95;;
29092;SDS011;16167;48.768;14.984;2022-09-12T06:02:00;17.40;;;13.45;;
29092;SDS011;16167;48.768;14.984;2022-09-12T06:04:28;12.45;;;10.18;;
29092;SDS011;16167;48.768;14.984;2022-09-12T06:06:56;12.05;;;9.02;;
29092;SDS011;16167;48.768;14.984;2022-09-12T06:09:24;10.18;;;8.43;;
29092;SDS011;16167;48.768;14.984;2022-09-12T06:11:54;12.40;;;8.27;;
29092;SDS011;16167;48.768;14.984;2022-09-12T06:14:22;11.07;;;9.35;;
29092;SDS011;16167;48.768;14.984;2022-09-12T06:16:50;11.63;;;8.70;;
29092;SDS011;16167;48.768;14.984;2022-09-12T06:19:19;11.35;;;9.00;;
29092;SDS011;16167;48.768;14.984;2022-09-12T06:21:48;14.40;;;9.40;;
29092;SDS011;16167;48.768;14.984;2022-09-12T06:24:18;12.65;;;8.75;;
29092;SDS011;16167;48.768;14.984;2022-09-12T06:26:46;10.93;;;7.90;;
29092;SDS011;16167;48.768;14.984;2022-09-12T06:29:19;9.43;;;7.75;;
29092;SDS011;16167;48.768;14.984;2022-09-12T06:31:47;10.52;;;7.50;;
29092;SDS011;16167;48.768;14.984;2022-09-12T06:34:15;7.72;;;6.80;;
29092;SDS011;16167;48.768;14.984;2022-09-12T06:36:44;9.13;;;6.90;;
29092;SDS011;16167;48.768;14.984;2022-09-12T06:41:41;20.33;;;7.97;;
29092;SDS011;16167;48.768;14.984;2022-09-12T06:44:10;8.10;;;7.20;;
29092;SDS011;16167;48.768;14.984;2022-09-12T06:46:42;8.48;;;7.10;;
29092;SDS011;16167;48.768;14.984;2022-09-12T06:51:38;10.43;;;6.35;;
29092;SDS011;16167;48.768;14.984;2022-09-12T06:54:08;8.52;;;7.40;;
29092;SDS011;16167;48.768;14.984;2022-09-12T06:56:39;7.43;;;6.72;;
29092;SDS011;16167;48.768;14.984;2022-09-12T06:59:07;11.90;;;7.85;;
29092;SDS011;16167;48.768;14.984;2022-09-12T07:01:35;8.07;;;7.28;;
29092;SDS011;16167;48.768;14.984;2022-09-12T07:04:04;8.68;;;7.30;;
29092;SDS011;16167;48.768;14.984;2022-09-12T07:06:34;14.60;;;9.73;;
29092;SDS011;16167;48.768;14.984;2022-09-12T07:09:04;10.10;;;8.20;;
29092;SDS011;16167;48.768;14.984;2022-09-12T07:11:35;10.35;;;8.35;;
29092;SDS011;16167;48.768;14.984;2022-09-12T07:14:05;8.77;;;7.85;;
29092;SDS011;16167;48.768;14.984;2022-09-12T07:16:35;14.65;;;8.77;;
29092;SDS011;16167;48.768;14.984;2022-09-12T07:19:05;10.65;;;9.48;;
29092;SDS011;16167;48.768;14.984;2022-09-12T07:21:34;11.68;;;10.38;;
29092;SDS011;16167;48.768;14.984;2022-09-12T07:24:05;10.55;;;9.45;;
29092;SDS011;16167;48.768;14.984;2022-09-12T07:29:03;10.15;;;9.00;;
29092;SDS011;16167;48.768;14.984;2022-09-12T07:31:51;10.70;;;8.98;;
29092;SDS011;16167;48.768;14.984;2022-09-12T07:34:21;13.52;;;9.52;;
29092;SDS011;16167;48.768;14.984;2022-09-12T07:36:49;13.68;;;11.00;;
29092;SDS011;16167;48.768;14.984;2022-09-12T07:39:17;12.15;;;10.27;;
29092;SDS011;16167;48.768;14.984;2022-09-12T07:41:45;13.98;;;10.52;;
29092;SDS011;16167;48.768;14.984;2022-09-12T07:44:13;14.23;;;10.63;;
29092;SDS011;16167;48.768;14.984;2022-09-12T07:46:41;12.23;;;10.02;;
29092;SDS011;16167;48.768;14.984;2022-09-12T07:49:10;15.77;;;10.48;;
29092;SDS011;16167;48.768;14.984;2022-09-12T07:51:40;12.32;;;10.05;;
29092;SDS011;16167;48.768;14.984;2022-09-12T07:54:08;13.27;;;10.43;;
29092;SDS011;16167;48.768;14.984;2022-09-12T07:56:37;15.47;;;11.23;;
29092;SDS011;16167;48.768;14.984;2022-09-12T07:59:06;14.10;;;10.45;;
29092;SDS011;16167;48.768;14.984;2022-09-12T08:01:34;10.93;;;9.77;;
29092;SDS011;16167;48.768;14.984;2022-09-12T08:04:02;13.63;;;11.40;;
29092;SDS011;16167;48.768;14.984;2022-09-12T08:06:31;12.43;;;10.43;;
29092;SDS011;16167;48.768;14.984;2022-09-12T08:09:03;11.48;;;9.25;;
29092;SDS011;16167;48.768;14.984;2022-09-12T08:11:33;10.65;;;9.55;;
29092;SDS011;16167;48.768;14.984;2022-09-12T08:14:01;10.32;;;8.68;;
29092;SDS011;16167;48.768;14.984;2022-09-12T08:16:31;10.02;;;8.32;;
29092;SDS011;16167;48.768;14.984;2022-09-12T08:19:01;11.43;;;8.35;;
29092;SDS011;16167;48.768;14.984;2022-09-12T08:21:30;11.70;;;8.18;;
29092;SDS011;16167;48.768;14.984;2022-09-12T08:26:29;9.63;;;8.15;;
29092;SDS011;16167;48.768;14.984;2022-09-12T08:28:58;9.15;;;8.02;;
29092;SDS011;16167;48.768;14.984;2022-09-12T08:31:26;11.60;;;8.60;;
29092;SDS011;16167;48.768;14.984;2022-09-12T08:33:55;9.30;;;7.95;;
29092;SDS011;16167;48.768;14.984;2022-09-12T08:36:24;9.33;;;7.70;;
29092;SDS011;16167;48.768;14.984;2022-09-12T08:38:55;8.00;;;7.20;;
29092;SDS011;16167;48.768;14.984;2022-09-12T08:41:29;9.98;;;7.72;;
29092;SDS011;16167;48.768;14.984;2022-09-12T08:44:09;9.18;;;7.35;;
29092;SDS011;16167;48.768;14.984;2022-09-12T08:46:56;12.68;;;9.23;;
29092;SDS011;16167;48.768;14.984;2022-09-12T08:49:35;9.32;;;8.25;;
29092;SDS011;16167;48.768;14.984;2022-09-12T08:52:09;10.02;;;7.30;;
29092;SDS011;16167;48.768;14.984;2022-09-12T08:54:40;10.98;;;7.40;;
29092;SDS011;16167;48.768;14.984;2022-09-12T08:57:12;11.02;;;8.23;;
29092;SDS011;16167;48.768;14.984;2022-09-12T08:59:42;10.05;;;7.60;;
29092;SDS011;16167;48.768;14.984;2022-09-12T09:02:20;8.43;;;7.45;;
29092;SDS011;16167;48.768;14.984;2022-09-12T09:05:11;8.77;;;7.50;;
29092;SDS011;16167;48.768;14.984;2022-09-12T09:10:46;11.02;;;7.72;;
29092;SDS011;16167;48.768;14.984;2022-09-12T09:13:23;8.80;;;7.90;;
29092;SDS011;16167;48.768;14.984;2022-09-12T09:16:16;8.52;;;6.47;;
29092;SDS011;16167;48.768;14.984;2022-09-12T09:18:50;11.57;;;6.95;;
29092;SDS011;16167;48.768;14.984;2022-09-12T09:21:20;10.50;;;7.40;;
29092;SDS011;16167;48.768;14.984;2022-09-12T09:23:53;11.18;;;7.35;;
29092;SDS011;16167;48.768;14.984;2022-09-12T09:26:28;8.52;;;7.47;;
29092;SDS011;16167;48.768;14.984;2022-09-12T09:29:09;8.30;;;6.82;;
29092;SDS011;16167;48.768;14.984;2022-09-12T09:31:41;11.25;;;7.55;;
29092;SDS011;16167;48.768;14.984;2022-09-12T09:34:14;6.65;;;6.03;;
29092;SDS011;16167;48.768;14.984;2022-09-12T09:36:48;8.50;;;6.20;;
29092;SDS011;16167;48.768;14.984;2022-09-12T09:39:26;8.65;;;7.18;;
29092;SDS011;16167;48.768;14.984;2022-09-12T09:42:11;7.53;;;6.32;;
29092;SDS011;16167;48.768;14.984;2022-09-12T09:44:48;7.63;;;6.40;;
29092;SDS011;16167;48.768;14.984;2022-09-12T09:47:19;10.52;;;7.20;;
29092;SDS011;16167;48.768;14.984;2022-09-12T09:49:48;7.85;;;6.28;;
29092;SDS011;16167;48.768;14.984;2022-09-12T09:52:23;7.10;;;5.72;;
29092;SDS011;16167;48.768;14.984;2022-09-12T09:54:54;7.05;;;5.22;;
29092;SDS011;16167;48.768;14.984;2022-09-12T09:57:36;6.18;;;5.40;;
29092;SDS011;16167;48.768;14.984;2022-09-12T10:00:21;8.68;;;5.80;;
29092;SDS011;16167;48.768;14.984;2022-09-12T10:03:05;7.68;;;5.43;;
29092;SDS011;16167;48.768;14.984;2022-09-12T10:08:21;9.32;;;5.28;;
29092;SDS011;16167;48.768;14.984;2022-09-12T10:10:52;6.10;;;5.25;;
29092;SDS011;16167;48.768;14.984;2022-09-12T10:13:23;5.80;;;5.20;;
29092;SDS011;16167;48.768;14.984;2022-09-12T10:15:56;6.72;;;5.15;;
29092;SDS011;16167;48.768;14.984;2022-09-12T10:18:32;4.82;;;4.43;;
29092;SDS011;16167;48.768;14.984;2022-09-12T10:21:05;5.32;;;4.80;;
29092;SDS011;16167;48.768;14.984;2022-09-12T10:23:41;5.22;;;4.65;;
29092;SDS011;16167;48.768;14.984;2022-09-12T10:26:10;5.53;;;4.85;;
29092;SDS011;16167;48.768;14.984;2022-09-12T10:28:40;5.45;;;4.82;;
29092;SDS011;16167;48.768;14.984;2022-09-12T10:31:14;6.47;;;5.15;;
29092;SDS011;16167;48.768;14.984;2022-09-12T10:33:50;5.28;;;4.75;;
29092;SDS011;16167;48.768;14.984;2022-09-12T10:36:19;4.45;;;4.03;;
29092;SDS011;16167;48.768;14.984;2022-09-12T10:38:49;5.93;;;4.47;;
29092;SDS011;16167;48.768;14.984;2022-09-12T10:41:19;5.82;;;3.78;;
29092;SDS011;16167;48.768;14.984;2022-09-12T10:43:48;4.65;;;4.20;;
29092;SDS011;16167;48.768;14.984;2022-09-12T10:46:21;4.30;;;3.90;;
29092;SDS011;16167;48.768;14.984;2022-09-12T10:51:49;4.28;;;3.67;;
29092;SDS011;16167;48.768;14.984;2022-09-12T10:54:18;4.38;;;3.97;;
29092;SDS011;16167;48.768;14.984;2022-09-12T10:57:02;5.85;;;4.05;;
29092;SDS011;16167;48.768;14.984;2022-09-12T10:59:58;4.30;;;3.65;;
29092;SDS011;16167;48.768;14.984;2022-09-12T11:02:37;4.95;;;3.22;;
29092;SDS011;16167;48.768;14.984;2022-09-12T11:05:19;5.05;;;3.47;;
29092;SDS011;16167;48.768;14.984;2022-09-12T11:07:58;4.15;;;3.75;;
29092;SDS011;16167;48.768;14.984;2022-09-12T11:13:16;3.50;;;3.20;;
29092;SDS011;16167;48.768;14.984;2022-09-12T11:15:55;4.88;;;4.03;;
29092;SDS011;16167;48.768;14.984;2022-09-12T11:18:41;5.55;;;4.10;;
29092;SDS011;16167;48.768;14.984;2022-09-12T11:21:32;5.95;;;3.78;;
29092;SDS011;16167;48.768;14.984;2022-09-12T11:24:09;6.85;;;4.05;;
29092;SDS011;16167;48.768;14.984;2022-09-12T11:26:56;4.57;;;4.00;;
29092;SDS011;16167;48.768;14.984;2022-09-12T11:29:34;5.18;;;3.83;;
29092;SDS011;16167;48.768;14.984;2022-09-12T11:32:30;3.67;;;3.38;;
29092;SDS011;16167;48.768;14.984;2022-09-12T11:35:15;3.83;;;3.40;;
29092;SDS011;16167;48.768;14.984;2022-09-12T11:37:49;5.00;;;3.78;;
29092;SDS011;16167;48.768;14.984;2022-09-12T11:40:30;3.90;;;3.40;;
29092;SDS011;16167;48.768;14.984;2022-09-12T11:43:05;5.43;;;3.60;;
29092;SDS011;16167;48.768;14.984;2022-09-12T11:45:42;4.18;;;3.78;;
29092;SDS011;16167;48.768;14.984;2022-09-12T11:48:13;4.43;;;3.60;;
29092;SDS011;16167;48.768;14.984;2022-09-12T11:50:47;4.28;;;3.20;;
29092;SDS011;16167;48.768;14.984;2022-09-12T11:53:17;5.22;;;3.85;;
29092;SDS011;16167;48.768;14.984;2022-09-12T11:55:51;3.90;;;3.50;;
29092;SDS011;16167;48.768;14.984;2022-09-12T11:58:25;5.22;;;3.55;;
29092;SDS011;16167;48.768;14.984;2022-09-12T12:00:55;3.72;;;3.33;;
29092;SDS011;16167;48.768;14.984;2022-09-12T12:03:40;4.10;;;3.53;;
29092;SDS011;16167;48.768;14.984;2022-09-12T12:06:13;4.07;;;3.33;;
29092;SDS011;16167;48.768;14.984;2022-09-12T12:08:45;3.80;;;2.78;;
29092;SDS011;16167;48.768;14.984;2022-09-12T12:11:23;4.68;;;3.03;;
29092;SDS011;16167;48.768;14.984;2022-09-12T12:13:55;2.97;;;2.58;;
29092;SDS011;16167;48.768;14.984;2022-09-12T12:16:27;3.25;;;2.47;;
29092;SDS011;16167;48.768;14.984;2022-09-12T12:18:57;5.40;;;3.10;;
29092;SDS011;16167;48.768;14.984;2022-09-12T12:21:32;3.88;;;2.90;;
29092;SDS011;16167;48.768;14.984;2022-09-12T12:24:11;3.38;;;2.85;;
29092;SDS011;16167;48.768;14.984;2022-09-12T12:26:44;4.82;;;3.30;;
29092;SDS011;16167;48.768;14.984;2022-09-12T12:29:36;4.03;;;3.05;;
29092;SDS011;16167;48.768;14.984;2022-09-12T12:32:20;3.72;;;3.30;;
29092;SDS011;16167;48.768;14.984;2022-09-12T12:38:11;4.35;;;3.55;;
29092;SDS011;16167;48.768;14.984;2022-09-12T12:40:53;3.55;;;3.00;;
29092;SDS011;16167;48.768;14.984;2022-09-12T12:44:01;2.88;;;2.55;;
29092;SDS011;16167;48.768;14.984;2022-09-12T12:47:07;2.45;;;2.22;;
29092;SDS011;16167;48.768;14.984;2022-09-12T12:49:47;3.58;;;2.67;;
29092;SDS011;16167;48.768;14.984;2022-09-12T12:52:18;2.70;;;2.50;;
29092;SDS011;16167;48.768;14.984;2022-09-12T12:54:50;6.22;;;3.53;;
29092;SDS011;16167;48.768;14.984;2022-09-12T12:57:26;3.08;;;2.42;;
29092;SDS011;16167;48.768;14.984;2022-09-12T12:59:59;2.78;;;2.58;;
29092;SDS011;16167;48.768;14.984;2022-09-12T13:02:30;2.78;;;2.58;;
29092;SDS011;16167;48.768;14.984;2022-09-12T13:05:02;2.92;;;2.58;;
29092;SDS011;16167;48.768;14.984;2022-09-12T13:07:33;3.40;;;2.70;;
29092;SDS011;16167;48.768;14.984;2022-09-12T13:10:04;2.92;;;2.67;;
29092;SDS011;16167;48.768;14.984;2022-09-12T13:12:34;2.53;;;2.33;;
29092;SDS011;16167;48.768;14.984;2022-09-12T13:15:27;3.55;;;2.65;;
29092;SDS011;16167;48.768;14.984;2022-09-12T13:18:13;2.60;;;2.40;;
29092;SDS011;16167;48.768;14.984;2022-09-12T13:20:46;3.67;;;2.33;;
29092;SDS011;16167;48.768;14.984;2022-09-12T13:23:21;3.17;;;2.50;;
29092;SDS011;16167;48.768;14.984;2022-09-12T13:25:53;2.70;;;2.50;;
29092;SDS011;16167;48.768;14.984;2022-09-12T13:28:22;2.20;;;2.00;;
29092;SDS011;16167;48.768;14.984;2022-09-12T13:33:29;2.08;;;1.92;;
29092;SDS011;16167;48.768;14.984;2022-09-12T13:36:06;2.38;;;2.17;;
29092;SDS011;16167;48.768;14.984;2022-09-12T13:38:50;2.10;;;1.90;;
29092;SDS011;16167;48.768;14.984;2022-09-12T13:44:31;2.13;;;2.00;;
29092;SDS011;16167;48.768;14.984;2022-09-12T13:47:09;3.58;;;2.30;;
29092;SDS011;16167;48.768;14.984;2022-09-12T13:49:40;2.03;;;1.90;;
29092;SDS011;16167;48.768;14.984;2022-09-12T13:52:13;2.00;;;1.90;;
29092;SDS011;16167;48.768;14.984;2022-09-12T13:54:44;3.15;;;1.83;;
29092;SDS011;16167;48.768;14.984;2022-09-12T13:57:29;3.20;;;2.10;;
29092;SDS011;16167;48.768;14.984;2022-09-12T13:59:59;2.03;;;1.90;;
29092;SDS011;16167;48.768;14.984;2022-09-12T14:02:34;1.95;;;1.83;;
29092;SDS011;16167;48.768;14.984;2022-09-12T14:05:10;2.10;;;1.90;;
29092;SDS011;16167;48.768;14.984;2022-09-12T14:07:44;3.88;;;1.75;;
29092;SDS011;16167;48.768;14.984;2022-09-12T14:10:21;1.98;;;1.80;;
29092;SDS011;16167;48.768;14.984;2022-09-12T14:12:53;2.65;;;2.38;;
29092;SDS011;16167;48.768;14.984;2022-09-12T14:15:23;3.53;;;1.90;;
29092;SDS011;16167;48.768;14.984;2022-09-12T14:17:55;2.10;;;1.90;;
29092;SDS011;16167;48.768;14.984;2022-09-12T14:20:24;2.92;;;2.20;;
29092;SDS011;16167;48.768;14.984;2022-09-12T14:22:58;2.03;;;1.80;;
29092;SDS011;16167;48.768;14.984;2022-09-12T14:25:29;3.13;;;1.73;;
29092;SDS011;16167;48.768;14.984;2022-09-12T14:28:02;2.72;;;1.67;;
29092;SDS011;16167;48.768;14.984;2022-09-12T14:30:31;3.58;;;2.00;;
29092;SDS011;16167;48.768;14.984;2022-09-12T14:33:04;1.80;;;1.70;;
29092;SDS011;16167;48.768;14.984;2022-09-12T14:35:42;2.00;;;1.90;;
29092;SDS011;16167;48.768;14.984;2022-09-12T14:38:14;2.13;;;1.80;;
29092;SDS011;16167;48.768;14.984;2022-09-12T14:40:52;2.15;;;1.95;;
29092;SDS011;16167;48.768;14.984;2022-09-12T14:43:27;1.90;;;1.80;;
29092;SDS011;16167;48.768;14.984;2022-09-12T14:45:57;3.25;;;1.83;;
29092;SDS011;16167;48.768;14.984;2022-09-12T14:48:29;3.05;;;2.47;;
29092;SDS011;16167;48.768;14.984;2022-09-12T14:50:59;1.90;;;1.80;;
29092;SDS011;16167;48.768;14.984;2022-09-12T14:53:31;2.00;;;1.80;;
29092;SDS011;16167;48.768;14.984;2022-09-12T14:56:07;3.25;;;2.08;;
29092;SDS011;16167;48.768;14.984;2022-09-12T14:58:37;1.90;;;1.80;;
29092;SDS011;16167;48.768;14.984;2022-09-12T15:01:20;1.90;;;1.65;;
29092;SDS011;16167;48.768;14.984;2022-09-12T15:03:54;3.08;;;2.28;;
29092;SDS011;16167;48.768;14.984;2022-09-12T15:06:25;2.28;;;2.00;;
29092;SDS011;16167;48.768;14.984;2022-09-12T15:08:56;4.05;;;1.88;;
29092;SDS011;16167;48.768;14.984;2022-09-12T15:11:26;2.33;;;2.13;;
29092;SDS011;16167;48.768;14.984;2022-09-12T15:13:54;2.43;;;1.90;;
29092;SDS011;16167;48.768;14.984;2022-09-12T15:16:22;2.38;;;2.17;;
29092;SDS011;16167;48.768;14.984;2022-09-12T15:18:50;2.58;;;2.30;;
29092;SDS011;16167;48.768;14.984;2022-09-12T15:21:19;2.63;;;2.42;;
29092;SDS011;16167;48.768;14.984;2022-09-12T15:23:48;2.40;;;2.00;;
29092;SDS011;16167;48.768;14.984;2022-09-12T15:26:18;2.95;;;2.65;;
29092;SDS011;16167;48.768;14.984;2022-09-12T15:28:48;10.02;;;4.30;;
29092;SDS011;16167;48.768;14.984;2022-09-12T15:31:20;5.78;;;2.38;;
29092;SDS011;16167;48.768;14.984;2022-09-12T15:33:50;3.40;;;2.45;;
29092;SDS011;16167;48.768;14.984;2022-09-12T15:36:21;2.47;;;2.28;;